Plaza, Colorado
Current Conditions -  °F | °C
As of 6:20 AM on Monday 22 Dec 2014 (Local Time) from KRCV Reporting Station
Overcast Overcast  
Wind Chill: 26°   Ceiling: 12000
Heat Index: 36°   Visibility: 10mi
Dew Point: 24°   Wind: 16mph
Humidity: 64%   Direction: 270°W
Pressure: 29.76"   Gusts: 25mph
Location:  37.6359°N, 106.449°W
Report Text: KRCV 221320Z AUTO 27014G22KT 10SM SCT055 SCT065 OVC120 02/M04 A2976 RMK AO2 T00201042
Loading
Personal Weather Stations






























Interactive Weather Map New forecast layout! Learn more

10-Day Weather Forecast

Advertisements
Track Severe Weather on mobile